Time;durP1;ratioP1;P1;durP2;ratioP2;P2;SDS_P1;SDS_P2;PMS_P1;PMS_P2;Temp;Humidity;BMP_temperature;BMP_pressure;BME280_temperature;BME280_humidity;BME280_pressure;Samples;Min_cycle;Max_cycle;Signal;HPM_P1;HPM_P2
2021/05/10 00:02:10;;;;;;;;;;;;;;;;;;5027975;28;20043;-65
2021/05/10 00:04:36;;;;;;;;;;;;;;;;;;5029541;28;19948;-63
2021/05/10 00:07:03;;;;;;;;;;;;;;;;;;5029413;28;20020;-64
2021/05/10 00:09:29;;;;;;;;;;;;;;;;;;5024137;28;20308;-65
2021/05/10 00:11:56;;;;;;;;;;;;;;;;;;5027383;28;19925;-64
2021/05/10 00:14:38;;;;;;;;;;;;;;;;;;5028428;28;20335;-65
2021/05/10 00:17:04;;;;;;;;;;;;;;;;;;5028039;28;19925;-64
2021/05/10 00:19:31;;;;;;;;;;;;;;;;;;5027281;28;20374;-63
2021/05/10 00:21:57;;;;;;;;;;;;;;;;;;5027765;28;19925;-64
2021/05/10 00:24:24;;;;;;;;;;;;;;;;;;5027971;28;19983;-65
2021/05/10 00:26:50;;;;;;;;;;;;;;;;;;5029992;28;20347;-64
2021/05/10 00:29:18;;;;;;;;;;;;;;;;;;5031019;28;19932;-64
2021/05/10 00:31:44;;;;;;;;;;;;;;;;;;5029047;28;19926;-65
2021/05/10 00:34:11;;;;;;;;;;;;;;;;;;5030030;28;20023;-64
2021/05/10 00:36:37;;;;;;;;;;;;;;;;;;5028998;28;19933;-67
2021/05/10 00:39:04;;;;;;;;;;;;;;;;;;5030009;28;19925;-68
2021/05/10 00:41:30;;;;;;;;;;;;;;;;;;5029316;28;19940;-66
2021/05/10 00:43:57;;;;;;;;;;;;;;;;;;5028145;28;19935;-64
2021/05/10 00:46:23;;;;;;;;;;;;;;;;;;5028630;28;19935;-65
2021/05/10 00:48:50;;;;;;;;;;;;;;;;;;5030144;28;20381;-64
2021/05/10 00:51:16;;;;;;;;;;;;;;;;;;5025458;28;19985;-67
2021/05/10 00:53:43;;;;;;;;;;;;;;;;;;5025075;28;19929;-65
2021/05/10 00:56:09;;;;;;;;;;;;;;;;;;5027830;28;19926;-64
2021/05/10 00:58:36;;;;;;;;;;;;;;;;;;5031241;28;20020;-65
2021/05/10 01:01:02;;;;;;;;;;;;;;;;;;5032515;28;20289;-64
2021/05/10 01:03:29;;;;;;;;;;;;;;;;;;5032449;28;20423;-66
2021/05/10 01:05:55;;;;;;;;;;;;;;;;;;5030473;28;19925;-63
2021/05/10 01:08:22;;;;;;;;;;;;;;;;;;5031635;28;20494;-63
2021/05/10 01:10:48;;;;;;;;;;;;;;;;;;5032843;28;19963;-63
2021/05/10 01:13:15;;;;;;;;;;;;;;;;;;5032005;28;20247;-64
2021/05/10 01:15:42;;;;;;;;;;;;;;;;;;5034143;28;19925;-64
2021/05/10 01:18:10;;;;;;;;;;;;;;;;;;5031481;28;19925;-65
2021/05/10 01:20:37;;;;;;;;;;;;;;;;;;5031890;28;20349;-65
2021/05/10 01:23:03;;;;;;;;;;;;;;;;;;5032504;28;19929;-64
2021/05/10 01:25:29;;;;;;;;;;;;;;;;;;5027086;28;19979;-66
2021/05/10 01:27:56;;;;;;;;;;;;;;;;;;5030770;28;19925;-65
2021/05/10 01:30:22;;;;;;;;;;;;;;;;;;5031258;28;20373;-63
2021/05/10 01:32:49;;;;;;;;;;;;;;;;;;5029446;28;19971;-64
2021/05/10 01:35:15;;;;;;;;;;;;;;;;;;5031853;28;19925;-65
2021/05/10 01:37:42;;;;;;;;;;;;;;;;;;5024966;28;19929;-65
2021/05/10 01:40:08;;;;;;;;;;;;;;;;;;5030782;28;19933;-65
2021/05/10 01:42:35;;;;;;;;;;;;;;;;;;5029769;28;20370;-64
2021/05/10 01:45:01;;;;;;;;;;;;;;;;;;5029433;28;19929;-65
2021/05/10 01:47:28;;;;;;;;;;;;;;;;;;5031804;28;19925;-63
2021/05/10 01:49:54;;;;;;;;;;;;;;;;;;5032176;28;19929;-64
2021/05/10 01:52:21;;;;;;;;;;;;;;;;;;5031741;28;20362;-65
2021/05/10 01:54:47;;;;;;;;;;;;;;;;;;5030175;28;19925;-65
2021/05/10 01:57:14;;;;;;;;;;;;;;;;;;5030738;28;20376;-63
2021/05/10 01:59:40;;;;;;;;;;;;;;;;;;5033356;28;19932;-65
2021/05/10 02:02:07;;;;;;;;;;;;;;;;;;5030380;28;20413;-65
2021/05/10 02:04:33;;;;;;;;;;;;;;;;;;5029134;28;19929;-64
2021/05/10 02:07:00;;;;;;;;;;;;;;;;;;5028843;28;19955;-66
2021/05/10 02:09:26;;;;;;;;;;;;;;;;;;5028619;28;20392;-64
2021/05/10 02:11:53;;;;;;;;;;;;;;;;;;5030283;28;19929;-66
2021/05/10 02:14:19;;;;;;;;;;;;;;;;;;5026164;28;19925;-64
2021/05/10 02:16:46;;;;;;;;;;;;;;;;;;5030603;28;19962;-64
2021/05/10 02:19:12;;;;;;;;;;;;;;;;;;5031503;28;19955;-65
2021/05/10 02:21:39;;;;;;;;;;;;;;;;;;5028889;28;20024;-66
2021/05/10 02:24:05;;;;;;;;;;;;;;;;;;5031317;28;19925;-67
2021/05/10 02:26:32;;;;;;;;;;;;;;;;;;5025571;28;19925;-64
2021/05/10 02:29:01;;;;;;;;;;;;;;;;;;5031776;28;19925;-65
2021/05/10 02:31:28;;;;;;;;;;;;;;;;;;5031218;28;20011;-68
2021/05/10 02:33:54;;;;;;;;;;;;;;;;;;5029571;28;19929;-65
2021/05/10 02:36:21;;;;;;;;;;;;;;;;;;5031036;28;19925;-64
2021/05/10 02:38:47;;;;;;;;;;;;;;;;;;5030870;28;19932;-64
2021/05/10 02:41:13;;;;;;;;;;;;;;;;;;5030497;28;20019;-65
2021/05/10 02:43:40;;;;;;;;;;;;;;;;;;5031491;28;19934;-64
2021/05/10 02:46:06;;;;;;;;;;;;;;;;;;5030899;28;20035;-63
2021/05/10 02:48:33;;;;;;;;;;;;;;;;;;5030060;28;20000;-65
2021/05/10 02:50:59;;;;;;;;;;;;;;;;;;5029240;28;19925;-63
2021/05/10 02:53:26;;;;;;;;;;;;;;;;;;5028156;28;19947;-65
2021/05/10 02:55:52;;;;;;;;;;;;;;;;;;5029990;28;19935;-64
2021/05/10 02:58:19;;;;;;;;;;;;;;;;;;5023395;28;20020;-64
2021/05/10 03:00:45;;;;;;;;;;;;;;;;;;5031321;28;19929;-64
2021/05/10 03:03:12;;;;;;;;;;;;;;;;;;5030164;28;20025;-64
2021/05/10 03:05:40;;;;;;;;;;;;;;;;;;5030977;28;19925;-64
2021/05/10 03:08:07;;;;;;;;;;;;;;;;;;5029656;28;19925;-64
2021/05/10 03:10:33;;;;;;;;;;;;;;;;;;5029224;28;19999;-64
2021/05/10 03:12:59;;;;;;;;;;;;;;;;;;5028998;28;19995;-64
2021/05/10 03:15:26;;;;;;;;;;;;;;;;;;5026841;28;19925;-63
2021/05/10 03:17:52;;;;;;;;;;;;;;;;;;5029413;28;20509;-64
2021/05/10 03:20:19;;;;;;;;;;;;;;;;;;5030318;28;19925;-63
2021/05/10 03:22:46;;;;;;;;;;;;;;;;;;5023419;28;19933;-64
2021/05/10 03:25:12;;;;;;;;;;;;;;;;;;5029024;28;20421;-64
2021/05/10 03:27:40;;;;;;;;;;;;;;;;;;5029817;28;20020;-63
2021/05/10 03:30:06;;;;;;;;;;;;;;;;;;5029754;28;19940;-63
2021/05/10 03:32:33;;;;;;;;;;;;;;;;;;5028619;28;19933;-64
2021/05/10 03:34:59;;;;;;;;;;;;;;;;;;5026503;28;19925;-63
2021/05/10 03:37:26;;;;;;;;;;;;;;;;;;5029687;28;20004;-64
2021/05/10 03:39:52;;;;;;;;;;;;;;;;;;5026276;28;20023;-63
2021/05/10 03:42:19;;;;;;;;;;;;;;;;;;5029959;28;19925;-65
2021/05/10 03:44:45;;;;;;;;;;;;;;;;;;5029975;28;19925;-65
2021/05/10 03:47:12;;;;;;;;;;;;;;;;;;5029423;28;19933;-64
2021/05/10 03:49:38;;;;;;;;;;;;;;;;;;5028542;28;19925;-65
2021/05/10 03:52:05;;;;;;;;;;;;;;;;;;5029229;28;19931;-64
2021/05/10 03:54:31;;;;;;;;;;;;;;;;;;5029693;28;19925;-64
2021/05/10 03:56:59;;;;;;;;;;;;;;;;;;5025690;28;20293;-65
2021/05/10 03:59:25;;;;;;;;;;;;;;;;;;5028424;28;19947;-68
2021/05/10 04:01:52;;;;;;;;;;;;;;;;;;5029014;28;19929;-64
2021/05/10 04:04:23;;;;;;;;;;;;;;;;;;5028393;28;19931;-65
2021/05/10 04:07:10;;;;;;;;;;;;;;;;;;5029045;28;19929;-66
2021/05/10 04:09:47;;;;;;;;;;;;;;;;;;5028122;28;19925;-63
2021/05/10 04:14:58;;;;;;;;;;;;;;;;;;5029071;28;20044;-64
2021/05/10 04:17:24;;;;;;;;;;;;;;;;;;5028628;28;20012;-65
2021/05/10 04:19:51;;;;;;;;;;;;;;;;;;5028686;28;20254;-65
2021/05/10 04:22:17;;;;;;;;;;;;;;;;;;5028166;28;19925;-64
2021/05/10 04:24:44;;;;;;;;;;;;;;;;;;5029159;28;20444;-65
2021/05/10 04:27:10;;;;;;;;;;;;;;;;;;5027897;28;19955;-66
2021/05/10 04:29:37;;;;;;;;;;;;;;;;;;5029524;28;20404;-65
2021/05/10 04:32:03;;;;;;;;;;;;;;;;;;5033721;28;20168;-64
2021/05/10 04:34:30;;;;;;;;;;;;;;;;;;5035651;28;19931;-63
2021/05/10 04:36:56;;;;;;;;;;;;;;;;;;5031401;28;19929;-64
2021/05/10 04:39:23;;;;;;;;;;;;;;;;;;5034571;28;19929;-67
2021/05/10 04:41:49;;;;;;;;;;;;;;;;;;5033775;28;19935;-64
2021/05/10 04:44:16;;;;;;;;;;;;;;;;;;5033465;28;19925;-65
2021/05/10 04:46:42;;;;;;;;;;;;;;;;;;5035995;28;19932;-65
2021/05/10 04:49:09;;;;;;;;;;;;;;;;;;5035452;28;20020;-64
2021/05/10 04:51:35;;;;;;;;;;;;;;;;;;5032511;28;19932;-63
2021/05/10 04:54:02;;;;;;;;;;;;;;;;;;5036953;28;19929;-65
2021/05/10 04:56:28;;;;;;;;;;;;;;;;;;5037772;28;19931;-64
2021/05/10 04:58:55;;;;;;;;;;;;;;;;;;5035687;28;19936;-64
2021/05/10 05:01:21;;;;;;;;;;;;;;;;;;5029626;28;19933;-67
2021/05/10 05:03:48;;;;;;;;;;;;;;;;;;5035729;28;19978;-64
2021/05/10 05:06:14;;;;;;;;;;;;;;;;;;5035330;28;19925;-67
2021/05/10 05:08:41;;;;;;;;;;;;;;;;;;5036139;28;19977;-64
2021/05/10 05:11:07;;;;;;;;;;;;;;;;;;5034022;28;19933;-64
2021/05/10 05:13:34;;;;;;;;;;;;;;;;;;5034936;28;20565;-64
2021/05/10 05:16:00;;;;;;;;;;;;;;;;;;5034229;28;20455;-64
2021/05/10 05:18:27;;;;;;;;;;;;;;;;;;5035094;28;19944;-64
2021/05/10 05:20:54;;;;;;;;;;;;;;;;;;5035430;28;19936;-64
2021/05/10 05:23:21;;;;;;;;;;;;;;;;;;5036403;28;19925;-64
2021/05/10 05:25:47;;;;;;;;;;;;;;;;;;5035623;28;19976;-63
2021/05/10 05:28:14;;;;;;;;;;;;;;;;;;5034596;28;19925;-65
2021/05/10 05:30:40;;;;;;;;;;;;;;;;;;5035723;28;19925;-64
2021/05/10 05:33:07;;;;;;;;;;;;;;;;;;5034405;28;19925;-64
2021/05/10 05:35:33;;;;;;;;;;;;;;;;;;5035795;28;20304;-66
2021/05/10 05:38:00;;;;;;;;;;;;;;;;;;5036984;28;19943;-63
2021/05/10 05:40:26;;;;;;;;;;;;;;;;;;5035548;28;19932;-65
2021/05/10 05:42:53;;;;;;;;;;;;;;;;;;5031964;28;19933;-65
2021/05/10 05:45:19;;;;;;;;;;;;;;;;;;5030649;28;19925;-65
2021/05/10 05:47:46;;;;;;;;;;;;;;;;;;5028858;28;19936;-67
2021/05/10 05:50:13;;;;;;;;;;;;;;;;;;5023345;28;19984;-65
2021/05/10 05:52:42;;;;;;;;;;;;;;;;;;5031232;28;19925;-65
2021/05/10 05:55:08;;;;;;;;;;;;;;;;;;5028185;28;20344;-66
2021/05/10 05:57:35;;;;;;;;;;;;;;;;;;5031524;28;19925;-65
2021/05/10 06:00:02;;;;;;;;;;;;;;;;;;5027241;28;19947;-65
2021/05/10 06:02:29;;;;;;;;;;;;;;;;;;5031892;28;19925;-64
2021/05/10 06:04:55;;;;;;;;;;;;;;;;;;5028082;28;19983;-65
2021/05/10 06:07:22;;;;;;;;;;;;;;;;;;5030823;28;19994;-67
2021/05/10 06:09:49;;;;;;;;;;;;;;;;;;5024901;28;19929;-65
2021/05/10 06:12:15;;;;;;;;;;;;;;;;;;5018360;28;19929;-65
2021/05/10 06:14:42;;;;;;;;;;;;;;;;;;5021288;28;19925;-66
2021/05/10 06:17:08;;;;;;;;;;;;;;;;;;5023776;28;19925;-66
2021/05/10 06:19:35;;;;;;;;;;;;;;;;;;5026612;28;19928;-64
2021/05/10 06:22:01;;;;;;;;;;;;;;;;;;5016036;28;19971;-64
2021/05/10 06:24:28;;;;;;;;;;;;;;;;;;5022154;28;20070;-66
2021/05/10 06:26:54;;;;;;;;;;;;;;;;;;5024358;28;19940;-65
2021/05/10 06:29:21;;;;;;;;;;;;;;;;;;5014072;28;20516;-66
2021/05/10 06:31:47;;;;;;;;;;;;;;;;;;5022398;28;19940;-66
2021/05/10 06:34:14;;;;;;;;;;;;;;;;;;5028001;28;19925;-65
2021/05/10 06:36:40;;;;;;;;;;;;;;;;;;5022809;28;19987;-66
2021/05/10 06:39:07;;;;;;;;;;;;;;;;;;5049874;22;19929;-68
2021/05/10 06:41:33;;;;;;;;;;;;;;;;;;5045618;28;20392;-67
2021/05/10 06:43:59;;;;;;;;;;;;;;;;;;5047578;28;19924;-67
2021/05/10 06:46:26;;;;;;;;;;;;;;;;;;5043681;28;19936;-70
2021/05/10 06:48:52;;;;;;;;;;;;;;;;;;5041296;28;19925;-70
2021/05/10 06:51:19;;;;;;;;;;;;;;;;;;5041868;28;19935;-67
2021/05/10 06:53:45;;;;;;;;;;;;;;;;;;5047863;28;19972;-68
2021/05/10 06:56:12;;;;;;;;;;;;;;;;;;5045555;28;19928;-66
2021/05/10 06:58:38;;;;;;;;;;;;;;;;;;5046550;28;20070;-67
2021/05/10 07:01:05;;;;;;;;;;;;;;;;;;5048668;28;19982;-66
2021/05/10 07:03:31;;;;;;;;;;;;;;;;;;5047350;28;20015;-68
2021/05/10 07:05:58;;;;;;;;;;;;;;;;;;5042110;28;19932;-68
2021/05/10 07:08:25;;;;;;;;;;;;;;;;;;5047658;28;19925;-68
2021/05/10 07:10:51;;;;;;;;;;;;;;;;;;5049956;28;19925;-68
2021/05/10 07:13:18;;;;;;;;;;;;;;;;;;5048943;28;19972;-67
2021/05/10 07:15:44;;;;;;;;;;;;;;;;;;5045055;28;19932;-68
2021/05/10 07:18:11;;;;;;;;;;;;;;;;;;5044429;28;20407;-68
2021/05/10 07:20:37;;;;;;;;;;;;;;;;;;5047484;28;19925;-68
2021/05/10 07:23:05;;;;;;;;;;;;;;;;;;5043724;28;19944;-68
2021/05/10 07:25:31;;;;;;;;;;;;;;;;;;5046162;28;20299;-68
2021/05/10 07:27:58;;;;;;;;;;;;;;;;;;5045306;28;19925;-68
2021/05/10 07:30:24;;;;;;;;;;;;;;;;;;5048706;28;19983;-68
2021/05/10 07:32:51;;;;;;;;;;;;;;;;;;5041098;28;19932;-68
2021/05/10 07:35:18;;;;;;;;;;;;;;;;;;5046462;28;20356;-68
2021/05/10 07:37:44;;;;;;;;;;;;;;;;;;5044135;28;20381;-70
2021/05/10 07:40:11;;;;;;;;;;;;;;;;;;5049617;28;19931;-68
2021/05/10 07:42:37;;;;;;;;;;;;;;;;;;5046440;28;20017;-68
2021/05/10 07:45:04;;;;;;;;;;;;;;;;;;5048835;28;20000;-68
2021/05/10 07:47:30;;;;;;;;;;;;;;;;;;5044902;28;20012;-67
2021/05/10 07:49:57;;;;;;;;;;;;;;;;;;5052178;28;19925;-69
2021/05/10 07:52:23;;;;;;;;;;;;;;;;;;5050582;28;19925;-66
2021/05/10 07:54:50;;;;;;;;;;;;;;;;;;5057880;28;20408;-67
2021/05/10 07:57:16;;;;;;;;;;;;;;;;;;5058281;28;19935;-70
2021/05/10 07:59:43;;;;;;;;;;;;;;;;;;5052824;28;19944;-70
2021/05/10 08:02:10;;;;;;;;;;;;;;;;;;5046965;28;19981;-68
2021/05/10 08:04:37;;;;;;;;;;;;;;;;;;5047400;28;19929;-69
2021/05/10 08:07:04;;;;;;;;;;;;;;;;;;5045279;28;19975;-68
2021/05/10 08:09:30;;;;;;;;;;;;;;;;;;5044369;28;19928;-68
2021/05/10 08:11:57;;;;;;;;;;;;;;;;;;5044161;28;19975;-67
2021/05/10 08:14:23;;;;;;;;;;;;;;;;;;5048421;28;20030;-67
2021/05/10 08:16:52;;;;;;;;;;;;;;;;;;5043037;28;19925;-67
2021/05/10 08:19:18;;;;;;;;;;;;;;;;;;5047665;28;20419;-68
2021/05/10 08:21:45;;;;;;;;;;;;;;;;;;5047267;28;20178;-68
2021/05/10 08:24:11;;;;;;;;;;;;;;;;;;5045816;28;20011;-69
2021/05/10 08:26:37;;;;;;;;;;;;;;;;;;5047149;28;19925;-67
2021/05/10 08:29:04;;;;;;;;;;;;;;;;;;5048325;28;20011;-69
2021/05/10 08:31:31;;;;;;;;;;;;;;;;;;5051086;28;19929;-68
2021/05/10 08:33:57;;;;;;;;;;;;;;;;;;5049269;28;19925;-69
2021/05/10 08:36:24;;;;;;;;;;;;;;;;;;5046632;28;20038;-66
2021/05/10 08:38:51;;;;;;;;;;;;;;;;;;5046959;28;19970;-66
2021/05/10 08:41:17;;;;;;;;;;;;;;;;;;5047977;28;20015;-67
2021/05/10 08:43:44;;;;;;;;;;;;;;;;;;5044353;28;19956;-68
2021/05/10 08:46:10;;;;;;;;;;;;;;;;;;5046191;28;19925;-69
2021/05/10 08:48:37;;;;;;;;;;;;;;;;;;5048936;28;20067;-68
2021/05/10 08:51:03;;;;;;;;;;;;;;;;;;5049681;28;19925;-67
2021/05/10 08:53:30;;;;;;;;;;;;;;;;;;5047251;28;19971;-68
2021/05/10 08:55:56;;;;;;;;;;;;;;;;;;5044417;28;19931;-68
2021/05/10 08:58:23;;;;;;;;;;;;;;;;;;5047219;28;19964;-68
2021/05/10 09:00:49;;;;;;;;;;;;;;;;;;5049818;28;20403;-68
2021/05/10 09:03:16;;;;;;;;;;;;;;;;;;5047417;28;20388;-68
2021/05/10 09:05:42;;;;;;;;;;;;;;;;;;5044806;28;19995;-67
2021/05/10 09:08:09;;;;;;;;;;;;;;;;;;5038802;28;20385;-68
2021/05/10 09:10:35;;;;;;;;;;;;;;;;;;5047928;28;20371;-67
2021/05/10 09:13:02;;;;;;;;;;;;;;;;;;5040062;28;19925;-70
2021/05/10 09:15:28;;;;;;;;;;;;;;;;;;5045203;28;19935;-69
2021/05/10 09:17:55;;;;;;;;;;;;;;;;;;5049131;28;19972;-69
2021/05/10 09:20:21;;;;;;;;;;;;;;;;;;5044418;28;19932;-69
2021/05/10 09:22:48;;;;;;;;;;;;;;;;;;5046412;28;19929;-68
2021/05/10 09:25:15;;;;;;;;;;;;;;;;;;5048535;28;20329;-69
2021/05/10 09:27:41;;;;;;;;;;;;;;;;;;5043493;28;20071;-69
2021/05/10 09:30:08;;;;;;;;;;;;;;;;;;5050735;28;19932;-69
2021/05/10 09:32:34;;;;;;;;;;;;;;;;;;5050929;28;19924;-69
2021/05/10 09:35:01;;;;;;;;;;;;;;;;;;5050288;28;19943;-69
2021/05/10 09:37:27;;;;;;;;;;;;;;;;;;5038365;28;19983;-67
2021/05/10 09:39:54;;;;;;;;;;;;;;;;;;5044313;28;19925;-68
2021/05/10 09:42:20;;;;;;;;;;;;;;;;;;5044167;28;20320;-67
2021/05/10 09:44:47;;;;;;;;;;;;;;;;;;5045297;28;19925;-68
2021/05/10 09:47:13;;;;;;;;;;;;;;;;;;5039471;28;20583;-69
2021/05/10 09:49:40;;;;;;;;;;;;;;;;;;5039916;28;19986;-68
2021/05/10 09:52:08;;;;;;;;;;;;;;;;;;5043111;28;20048;-68
2021/05/10 09:54:34;;;;;;;;;;;;;;;;;;5041188;28;19932;-67
2021/05/10 09:57:01;;;;;;;;;;;;;;;;;;5039535;28;19926;-67
2021/05/10 09:59:27;;;;;;;;;;;;;;;;;;5046021;28;19932;-69
2021/05/10 10:01:55;;;;;;;;;;;;;;;;;;5042179;28;19933;-67
2021/05/10 10:04:21;;;;;;;;;;;;;;;;;;5043679;28;19925;-67
2021/05/10 10:06:48;;;;;;;;;;;;;;;;;;5041467;28;20003;-68
2021/05/10 10:09:14;;;;;;;;;;;;;;;;;;5045530;28;20331;-70
2021/05/10 10:11:41;;;;;;;;;;;;;;;;;;5045061;28;20015;-70
2021/05/10 10:14:09;;;;;;;;;;;;;;;;;;5046187;28;20385;-69
2021/05/10 10:16:36;;;;;;;;;;;;;;;;;;5040576;28;19931;-68
2021/05/10 10:19:02;;;;;;;;;;;;;;;;;;5042533;28;20342;-68
2021/05/10 10:21:29;;;;;;;;;;;;;;;;;;5045406;28;19991;-68
2021/05/10 10:23:57;;;;;;;;;;;;;;;;;;5042865;28;19932;-68
2021/05/10 10:26:23;;;;;;;;;;;;;;;;;;5041703;28;19964;-68
2021/05/10 10:28:50;;;;;;;;;;;;;;;;;;5045630;28;20002;-68
2021/05/10 10:31:16;;;;;;;;;;;;;;;;;;5043034;28;19956;-69
2021/05/10 10:33:43;;;;;;;;;;;;;;;;;;5044025;28;19929;-68
2021/05/10 10:36:09;;;;;;;;;;;;;;;;;;5041968;28;20012;-67
2021/05/10 10:38:36;;;;;;;;;;;;;;;;;;5042770;28;20406;-66
2021/05/10 10:41:02;;;;;;;;;;;;;;;;;;5044214;28;20352;-68
2021/05/10 10:43:29;;;;;;;;;;;;;;;;;;5044732;28;19937;-67
2021/05/10 10:45:55;;;;;;;;;;;;;;;;;;5045931;28;19978;-69
2021/05/10 10:48:22;;;;;;;;;;;;;;;;;;5045162;28;19931;-69
2021/05/10 10:50:48;;;;;;;;;;;;;;;;;;5045135;28;20481;-69
2021/05/10 10:53:15;;;;;;;;;;;;;;;;;;5042112;28;19971;-70
2021/05/10 10:55:45;;;;;;;;;;;;;;;;;;5041829;28;20019;-69
2021/05/10 10:58:12;;;;;;;;;;;;;;;;;;5045375;28;20436;-69
2021/05/10 11:00:38;;;;;;;;;;;;;;;;;;5044074;28;19929;-68
2021/05/10 11:03:08;;;;;;;;;;;;;;;;;;5040952;28;19943;-70
2021/05/10 11:05:35;;;;;;;;;;;;;;;;;;5040206;28;20464;-69
2021/05/10 11:08:03;;;;;;;;;;;;;;;;;;5042543;28;20027;-70
2021/05/10 11:10:29;;;;;;;;;;;;;;;;;;5049167;28;19925;-69
2021/05/10 11:12:56;;;;;;;;;;;;;;;;;;5059905;28;19932;-68
2021/05/10 11:15:22;;;;;;;;;;;;;;;;;;5057096;28;19931;-68
2021/05/10 11:17:49;;;;;;;;;;;;;;;;;;5046171;28;19935;-67
2021/05/10 11:20:15;;;;;;;;;;;;;;;;;;5052478;28;19956;-68
2021/05/10 11:22:42;;;;;;;;;;;;;;;;;;5059536;28;20421;-69
2021/05/10 11:25:09;;;;;;;;;;;;;;;;;;5058580;28;19935;-68
2021/05/10 11:27:35;;;;;;;;;;;;;;;;;;5052418;28;20012;-67
2021/05/10 11:30:02;;;;;;;;;;;;;;;;;;5044176;28;19935;-68
2021/05/10 11:32:29;;;;;;;;;;;;;;;;;;5050555;28;20452;-69
2021/05/10 11:34:56;;;;;;;;;;;;;;;;;;5051735;28;19929;-69
2021/05/10 11:37:22;;;;;;;;;;;;;;;;;;5040333;28;19960;-68
2021/05/10 11:39:49;;;;;;;;;;;;;;;;;;5038759;28;19936;-68
2021/05/10 11:42:15;;;;;;;;;;;;;;;;;;5043960;28;19928;-68
2021/05/10 11:44:43;;;;;;;;;;;;;;;;;;5040253;28;19929;-68
2021/05/10 11:47:16;;;;;;;;;;;;;;;;;;5043823;28;20355;-68
2021/05/10 11:49:42;;;;;;;;;;;;;;;;;;5043982;28;19925;-69
2021/05/10 11:52:09;;;;;;;;;;;;;;;;;;5045805;28;20337;-69
2021/05/10 11:54:35;;;;;;;;;;;;;;;;;;5045860;28;19967;-69
2021/05/10 11:57:03;;;;;;;;;;;;;;;;;;5036916;28;19959;-69
2021/05/10 11:59:36;;;;;;;;;;;;;;;;;;5039865;28;20051;-67
2021/05/10 12:02:03;;;;;;;;;;;;;;;;;;5043919;28;19924;-69
2021/05/10 12:04:29;;;;;;;;;;;;;;;;;;5041788;28;20460;-68
2021/05/10 12:06:56;;;;;;;;;;;;;;;;;;5039808;28;19943;-68
2021/05/10 12:09:22;;;;;;;;;;;;;;;;;;5042678;28;20364;-69
2021/05/10 12:11:49;;;;;;;;;;;;;;;;;;5043679;28;19928;-70
2021/05/10 12:14:15;;;;;;;;;;;;;;;;;;5043365;28;19925;-69
2021/05/10 12:16:42;;;;;;;;;;;;;;;;;;5040343;28;19975;-69
2021/05/10 12:19:08;;;;;;;;;;;;;;;;;;5042397;28;20019;-70
2021/05/10 12:21:37;;;;;;;;;;;;;;;;;;5040905;28;19932;-69
2021/05/10 12:24:04;;;;;;;;;;;;;;;;;;5046979;28;19924;-69
2021/05/10 12:26:30;;;;;;;;;;;;;;;;;;5041778;28;19929;-69
2021/05/10 12:28:57;;;;;;;;;;;;;;;;;;5046586;28;19929;-69
2021/05/10 12:31:23;;;;;;;;;;;;;;;;;;5045000;28;20311;-68
2021/05/10 12:33:50;;;;;;;;;;;;;;;;;;5045815;28;20688;-69
2021/05/10 12:36:16;;;;;;;;;;;;;;;;;;5045915;28;19925;-68
2021/05/10 12:38:43;;;;;;;;;;;;;;;;;;5049812;28;20211;-70
2021/05/10 12:41:09;;;;;;;;;;;;;;;;;;5052814;23;19960;-68
2021/05/10 12:43:36;;;;;;;;;;;;;;;;;;5051355;28;19980;-68
2021/05/10 12:46:03;;;;;;;;;;;;;;;;;;5047679;28;19967;-70
2021/05/10 12:48:30;;;;;;;;;;;;;;;;;;5049749;28;19976;-68
2021/05/10 12:50:56;;;;;;;;;;;;;;;;;;5051902;28;19956;-67
2021/05/10 12:53:23;;;;;;;;;;;;;;;;;;5055645;28;19924;-69
2021/05/10 12:55:49;;;;;;;;;;;;;;;;;;5050416;28;20063;-68
2021/05/10 12:58:16;;;;;;;;;;;;;;;;;;5045805;28;19931;-68
2021/05/10 13:00:42;;;;;;;;;;;;;;;;;;5057016;28;20352;-70
2021/05/10 13:03:09;;;;;;;;;;;;;;;;;;5057120;28;20300;-69
2021/05/10 13:05:35;;;;;;;;;;;;;;;;;;5058844;28;19932;-69
2021/05/10 13:08:02;;;;;;;;;;;;;;;;;;5052422;28;19929;-69
2021/05/10 13:10:29;;;;;;;;;;;;;;;;;;5048038;28;19925;-69
2021/05/10 13:12:55;;;;;;;;;;;;;;;;;;5050381;28;19931;-68
2021/05/10 13:15:22;;;;;;;;;;;;;;;;;;5047106;28;19971;-71
2021/05/10 13:17:56;;;;;;;;;;;;;;;;;;5047543;28;20052;-69
2021/05/10 13:20:30;;;;;;;;;;;;;;;;;;5047266;28;19986;-69
2021/05/10 13:31:33;;;;;;;;;;;;;;;;;;4987504;28;19920;-68
2021/05/10 13:34:06;;;;;;;;;;;;;;;;;;5026222;28;19928;-69
2021/05/10 13:36:35;;;;;;;;;;;;;;;;;;5045897;28;19924;-68
2021/05/10 13:39:02;;;;;;;;;;;;;;;;;;5046600;28;19996;-68
2021/05/10 13:41:31;;;;;;;;;;;;;;;;;;5043059;28;19960;-68
2021/05/10 13:44:01;;;;;;;;;;;;;;;;;;5043897;28;19933;-67
2021/05/10 13:46:28;;;;;;;;;;;;;;;;;;5037734;28;20038;-69
2021/05/10 13:48:54;;;;;;;;;;;;;;;;;;5040391;28;20032;-68
2021/05/10 13:51:21;;;;;;;;;;;;;;;;;;5043529;28;19967;-67
2021/05/10 13:53:48;;;;;;;;;;;;;;;;;;5043854;28;20006;-68
2021/05/10 13:56:14;;;;;;;;;;;;;;;;;;5036545;28;20039;-69
2021/05/10 13:58:43;;;;;;;;;;;;;;;;;;5044370;28;20019;-68
2021/05/10 14:01:10;;;;;;;;;;;;;;;;;;5041738;28;19929;-69
2021/05/10 14:03:36;;;;;;;;;;;;;;;;;;5046466;28;19929;-70
2021/05/10 14:06:03;;;;;;;;;;;;;;;;;;5042822;28;19929;-68
2021/05/10 14:08:29;;;;;;;;;;;;;;;;;;5043706;28;19986;-68
2021/05/10 14:10:56;;;;;;;;;;;;;;;;;;5044498;28;19924;-67
2021/05/10 14:13:22;;;;;;;;;;;;;;;;;;5044096;28;19932;-69
2021/05/10 14:15:49;;;;;;;;;;;;;;;;;;5043401;28;20009;-69
2021/05/10 14:18:17;;;;;;;;;;;;;;;;;;5042438;28;19951;-69
2021/05/10 14:23:28;;;;;;;;;;;;;;;;;;5041034;28;19983;-68
2021/05/10 14:25:55;;;;;;;;;;;;;;;;;;5044305;28;20035;-68
2021/05/10 14:28:22;;;;;;;;;;;;;;;;;;5046044;28;19970;-69
2021/05/10 14:30:48;;;;;;;;;;;;;;;;;;5042186;28;20023;-67
2021/05/10 14:33:14;;;;;;;;;;;;;;;;;;5046707;28;19964;-68
2021/05/10 14:35:41;;;;;;;;;;;;;;;;;;5045090;28;19935;-68
2021/05/10 14:38:07;;;;;;;;;;;;;;;;;;5042643;28;20521;-68
2021/05/10 14:40:34;;;;;;;;;;;;;;;;;;5044653;28;20296;-68
2021/05/10 14:43:00;;;;;;;;;;;;;;;;;;5050542;28;19983;-67
2021/05/10 14:45:27;;;;;;;;;;;;;;;;;;5046495;28;19924;-68
2021/05/10 14:47:53;;;;;;;;;;;;;;;;;;5047240;28;19970;-68
2021/05/10 14:50:20;;;;;;;;;;;;;;;;;;5045637;28;19996;-68
2021/05/10 14:52:46;;;;;;;;;;;;;;;;;;5054241;28;19968;-69
2021/05/10 14:55:13;;;;;;;;;;;;;;;;;;5053245;28;19932;-70
2021/05/10 14:57:39;;;;;;;;;;;;;;;;;;5053699;28;21496;-68
2021/05/10 15:00:06;;;;;;;;;;;;;;;;;;5046869;28;19986;-69
2021/05/10 15:02:32;;;;;;;;;;;;;;;;;;5044978;28;20162;-69
2021/05/10 15:04:59;;;;;;;;;;;;;;;;;;5042937;28;19932;-71
2021/05/10 15:07:25;;;;;;;;;;;;;;;;;;5046442;28;20270;-68
2021/05/10 15:09:52;;;;;;;;;;;;;;;;;;5047897;28;19925;-68
2021/05/10 15:12:18;;;;;;;;;;;;;;;;;;5040697;28;20202;-69
2021/05/10 15:14:47;;;;;;;;;;;;;;;;;;5040526;28;20012;-68
2021/05/10 15:17:14;;;;;;;;;;;;;;;;;;5045010;28;19932;-70
2021/05/10 15:19:40;;;;;;;;;;;;;;;;;;5044581;28;19933;-68
2021/05/10 15:22:08;;;;;;;;;;;;;;;;;;5043521;28;20192;-68
2021/05/10 15:24:34;;;;;;;;;;;;;;;;;;5045239;28;19967;-66
2021/05/10 15:27:01;;;;;;;;;;;;;;;;;;5046054;28;20490;-67
2021/05/10 15:29:28;;;;;;;;;;;;;;;;;;5041696;28;19974;-67
2021/05/10 15:31:54;;;;;;;;;;;;;;;;;;5042257;28;19933;-66
2021/05/10 15:34:21;;;;;;;;;;;;;;;;;;5043797;28;19925;-66
2021/05/10 15:36:47;;;;;;;;;;;;;;;;;;5043664;28;19928;-68
2021/05/10 15:39:14;;;;;;;;;;;;;;;;;;5046562;28;20378;-66
2021/05/10 15:41:40;;;;;;;;;;;;;;;;;;5038954;28;19924;-67
2021/05/10 15:44:07;;;;;;;;;;;;;;;;;;5045919;28;19925;-67
2021/05/10 15:46:33;;;;;;;;;;;;;;;;;;5040371;28;19926;-68
2021/05/10 15:49:00;;;;;;;;;;;;;;;;;;5043228;28;21669;-66
2021/05/10 15:51:26;;;;;;;;;;;;;;;;;;5039216;28;20427;-66
2021/05/10 15:53:53;;;;;;;;;;;;;;;;;;5040160;28;19931;-68
2021/05/10 15:56:19;;;;;;;;;;;;;;;;;;5042948;28;20035;-68
2021/05/10 15:58:46;;;;;;;;;;;;;;;;;;5038461;28;19987;-69
2021/05/10 16:01:13;;;;;;;;;;;;;;;;;;5042209;28;20011;-69
2021/05/10 16:03:40;;;;;;;;;;;;;;;;;;5043936;28;19932;-69
2021/05/10 16:06:07;;;;;;;;;;;;;;;;;;5042872;28;20369;-67
2021/05/10 16:08:33;;;;;;;;;;;;;;;;;;5040939;28;19933;-68
2021/05/10 16:11:00;;;;;;;;;;;;;;;;;;5042984;28;19937;-68
2021/05/10 16:13:27;;;;;;;;;;;;;;;;;;5043127;28;20214;-67
2021/05/10 16:15:54;;;;;;;;;;;;;;;;;;5040173;28;20007;-67
2021/05/10 16:18:21;;;;;;;;;;;;;;;;;;5044890;28;19933;-70
2021/05/10 16:20:48;;;;;;;;;;;;;;;;;;5043617;28;19929;-68
2021/05/10 16:23:14;;;;;;;;;;;;;;;;;;5040209;28;19935;-69
2021/05/10 16:25:41;;;;;;;;;;;;;;;;;;5046540;28;20043;-69
2021/05/10 16:28:09;;;;;;;;;;;;;;;;;;5041166;28;20011;-69
2021/05/10 16:30:35;;;;;;;;;;;;;;;;;;5045386;28;19924;-68
2021/05/10 16:33:02;;;;;;;;;;;;;;;;;;5043704;28;20395;-69
2021/05/10 16:35:29;;;;;;;;;;;;;;;;;;5040841;28;19956;-70
2021/05/10 16:37:58;;;;;;;;;;;;;;;;;;5044542;28;19971;-70
2021/05/10 16:40:24;;;;;;;;;;;;;;;;;;5041007;28;20020;-69
2021/05/10 16:42:51;;;;;;;;;;;;;;;;;;5043725;28;19931;-70
2021/05/10 16:45:17;;;;;;;;;;;;;;;;;;5041667;28;19979;-71
2021/05/10 16:47:47;;;;;;;;;;;;;;;;;;5042341;28;19944;-70
2021/05/10 16:50:13;;;;;;;;;;;;;;;;;;5040711;28;19933;-69
2021/05/10 16:52:41;;;;;;;;;;;;;;;;;;5041693;28;19929;-68
2021/05/10 16:55:07;;;;;;;;;;;;;;;;;;5043952;28;19933;-69
2021/05/10 16:57:34;;;;;;;;;;;;;;;;;;5057042;28;19968;-71